createdAt,value
2017-07-28T00:00:53.216Z,0
2017-07-28T00:01:53.521Z,0
2017-07-28T00:02:53.215Z,0
2017-07-28T00:03:53.521Z,0
2017-07-28T00:04:53.212Z,0
2017-07-28T00:05:53.500Z,0
2017-07-28T00:06:53.512Z,0
2017-07-28T00:07:53.504Z,0
2017-07-28T00:08:53.493Z,0
2017-07-28T00:09:53.487Z,0
2017-07-28T00:10:53.509Z,0
2017-07-28T00:11:53.471Z,0
2017-07-28T00:12:53.481Z,0
2017-07-28T00:13:53.480Z,0
2017-07-28T00:14:53.474Z,0
2017-07-28T00:15:53.157Z,0
2017-07-28T00:16:53.470Z,0
2017-07-28T00:17:53.456Z,0
2017-07-28T00:18:53.470Z,0
2017-07-28T00:19:53.464Z,0
2017-07-28T00:20:53.444Z,0
2017-07-28T00:21:53.456Z,0
2017-07-28T00:22:53.427Z,0
2017-07-28T00:23:53.448Z,0
2017-07-28T00:24:53.427Z,0
2017-07-28T00:25:53.465Z,0
2017-07-28T00:26:53.117Z,0
2017-07-28T00:27:53.442Z,0
2017-07-28T00:28:53.413Z,0
2017-07-28T00:29:53.427Z,0
2017-07-28T00:30:53.419Z,0
2017-07-28T00:31:53.418Z,0
2017-07-28T00:32:53.419Z,0
2017-07-28T00:33:53.415Z,0
2017-07-28T00:34:53.413Z,0
2017-07-28T00:35:53.405Z,0
2017-07-28T00:36:53.393Z,0
2017-07-28T00:37:53.395Z,0
2017-07-28T00:38:53.381Z,0
2017-07-28T00:39:53.400Z,0
2017-07-28T00:40:53.374Z,0
2017-07-28T00:41:53.388Z,0
2017-07-28T00:42:53.386Z,0
2017-07-28T00:43:53.398Z,0
2017-07-28T00:44:53.365Z,0
2017-07-28T00:45:53.366Z,0
2017-07-28T00:46:53.372Z,0
2017-07-28T00:47:53.344Z,0
2017-07-28T00:48:53.344Z,0
2017-07-28T00:49:53.328Z,0
2017-07-28T00:50:53.358Z,0
2017-07-28T00:51:53.045Z,0
2017-07-28T00:52:53.343Z,0
2017-07-28T00:53:53.331Z,0
2017-07-28T00:54:53.016Z,0
2017-07-28T00:55:53.334Z,0
2017-07-28T00:56:53.022Z,0
2017-07-28T00:57:53.312Z,0
2017-07-28T00:58:53.330Z,0
2017-07-28T00:59:53.296Z,0
2017-07-28T01:00:53.332Z,0
2017-07-28T01:01:53.319Z,0
2017-07-28T01:02:53.330Z,0
2017-07-28T01:03:53.293Z,0
2017-07-28T01:04:53.301Z,0
2017-07-28T01:05:52.984Z,0
2017-07-28T01:06:53.307Z,0
2017-07-28T01:07:53.293Z,0
2017-07-28T01:08:53.275Z,0
2017-07-28T01:09:53.277Z,0
2017-07-28T01:10:53.272Z,0
2017-07-28T01:11:52.965Z,0
2017-07-28T01:12:53.261Z,0
2017-07-28T01:13:53.284Z,0
2017-07-28T01:14:53.246Z,0
2017-07-28T01:15:53.281Z,0
2017-07-28T01:16:52.936Z,0
2017-07-28T01:17:53.255Z,0
2017-07-28T01:18:53.233Z,0
2017-07-28T01:19:53.260Z,0
2017-07-28T01:20:53.240Z,0
2017-07-28T01:21:52.942Z,0
2017-07-28T01:22:53.226Z,0
2017-07-28T01:23:52.935Z,0
2017-07-28T01:24:53.222Z,0
2017-07-28T01:25:53.228Z,0
2017-07-28T01:26:53.219Z,0
2017-07-28T01:27:53.218Z,0
2017-07-28T01:28:53.221Z,0
2017-07-28T01:29:53.222Z,0
2017-07-28T01:30:53.221Z,0
2017-07-28T01:31:53.212Z,0
2017-07-28T01:32:53.203Z,0
2017-07-28T01:33:53.193Z,0
2017-07-28T01:34:53.182Z,0
2017-07-28T01:35:53.226Z,0
2017-07-28T01:36:53.188Z,0
2017-07-28T01:37:53.186Z,0
2017-07-28T01:38:53.175Z,0
2017-07-28T01:39:53.167Z,0
2017-07-28T01:40:53.175Z,0
2017-07-28T01:41:53.177Z,0
2017-07-28T01:42:53.170Z,0
2017-07-28T01:43:53.178Z,0
2017-07-28T01:44:53.166Z,0
2017-07-28T01:45:53.154Z,0
2017-07-28T01:46:53.160Z,0
2017-07-28T01:47:52.519Z,0
2017-07-28T01:48:53.150Z,0
2017-07-28T01:49:53.147Z,0
2017-07-28T01:50:53.131Z,0
2017-07-28T01:51:53.160Z,0
2017-07-28T01:52:53.129Z,0
2017-07-28T01:53:53.142Z,0
2017-07-28T01:54:52.820Z,0
2017-07-28T01:55:52.812Z,0
2017-07-28T01:56:53.129Z,0
2017-07-28T01:57:52.805Z,0
2017-07-28T01:58:52.820Z,0
2017-07-28T01:59:53.106Z,0
2017-07-28T02:00:53.116Z,0
2017-07-28T02:01:53.098Z,0
2017-07-28T02:02:53.111Z,0
2017-07-28T02:03:52.774Z,0
2017-07-28T02:04:53.095Z,0
2017-07-28T02:05:53.093Z,0
2017-07-28T02:06:53.107Z,0
2017-07-28T02:07:53.086Z,0
2017-07-28T02:08:53.065Z,0
2017-07-28T02:09:53.068Z,0
2017-07-28T02:10:53.077Z,0
2017-07-28T02:11:52.774Z,0
2017-07-28T02:12:53.048Z,0
2017-07-28T02:13:53.046Z,0
2017-07-28T02:14:53.074Z,0
2017-07-28T02:15:52.725Z,0
2017-07-28T02:16:52.739Z,0
2017-07-28T02:17:52.721Z,0
2017-07-28T02:18:52.423Z,0
2017-07-28T02:19:53.041Z,0
2017-07-28T02:20:52.416Z,0
2017-07-28T02:21:52.967Z,0
2017-07-28T02:22:53.037Z,0
2017-07-28T02:23:53.004Z,0
2017-07-28T02:24:52.393Z,0
2017-07-28T02:25:52.707Z,0
2017-07-28T02:26:53.015Z,0
2017-07-28T02:27:52.691Z,0
2017-07-28T02:28:52.392Z,0
2017-07-28T02:29:52.686Z,0
2017-07-28T02:30:53.001Z,0
2017-07-28T02:31:52.997Z,0
2017-07-28T02:32:52.990Z,0
2017-07-28T02:33:52.356Z,0
2017-07-28T02:34:53.001Z,0
2017-07-28T02:35:52.687Z,0
2017-07-28T02:36:52.980Z,0
2017-07-28T02:37:53.277Z,0
2017-07-28T02:38:52.989Z,4
2017-07-28T02:39:52.654Z,4
2017-07-28T02:40:52.973Z,4
2017-07-28T02:41:52.953Z,4
2017-07-28T02:42:52.946Z,0
2017-07-28T02:43:52.934Z,4
2017-07-28T02:44:52.634Z,4
2017-07-28T02:45:52.948Z,8
2017-07-28T02:46:52.953Z,4
2017-07-28T02:47:52.931Z,8
2017-07-28T02:48:52.945Z,8
2017-07-28T02:49:52.912Z,12
2017-07-28T02:50:52.921Z,12
2017-07-28T02:51:52.909Z,12
2017-07-28T02:52:52.930Z,12
2017-07-28T02:53:52.892Z,16
2017-07-28T02:54:52.922Z,20
2017-07-28T02:55:52.890Z,16
2017-07-28T02:56:52.907Z,16
2017-07-28T02:57:52.907Z,20
2017-07-28T02:58:52.905Z,20
2017-07-28T02:59:52.898Z,28
2017-07-28T03:00:52.572Z,32
2017-07-28T03:01:52.570Z,40
2017-07-28T03:02:52.908Z,48
2017-07-28T03:03:52.882Z,52
2017-07-28T03:04:52.888Z,60
2017-07-28T03:05:52.556Z,72
2017-07-28T03:06:52.869Z,76
2017-07-28T03:07:52.851Z,84
2017-07-28T03:08:52.869Z,92
2017-07-28T03:09:52.552Z,104
2017-07-28T03:10:52.545Z,116
2017-07-28T03:11:52.819Z,136
2017-07-28T03:12:52.824Z,152
2017-07-28T03:13:52.828Z,172
2017-07-28T03:14:52.840Z,192
2017-07-28T03:15:52.832Z,212
2017-07-28T03:16:52.807Z,220
2017-07-28T03:17:52.503Z,224
2017-07-28T03:18:52.791Z,228
2017-07-28T03:19:52.829Z,244
2017-07-28T03:20:52.491Z,264
2017-07-28T03:21:52.807Z,292
2017-07-28T03:22:52.484Z,328
2017-07-28T03:23:52.487Z,368
2017-07-28T03:24:52.786Z,404
2017-07-28T03:25:52.805Z,432
2017-07-28T03:26:52.781Z,460
2017-07-28T03:27:52.791Z,488
2017-07-28T03:28:52.779Z,516
2017-07-28T03:29:52.450Z,556
2017-07-28T03:30:52.459Z,596
2017-07-28T03:31:52.453Z,640
2017-07-28T03:32:52.748Z,680
2017-07-28T03:33:52.791Z,720
2017-07-28T03:34:52.443Z,760
2017-07-28T03:35:52.441Z,804
2017-07-28T03:36:52.421Z,864
2017-07-28T03:37:52.441Z,944
2017-07-28T03:38:52.431Z,1040
2017-07-28T03:39:52.433Z,1164
2017-07-28T03:40:52.401Z,1324
2017-07-28T03:41:52.735Z,1468
2017-07-28T03:42:52.708Z,1568
2017-07-28T03:43:52.422Z,1640
2017-07-28T03:44:52.735Z,1748
2017-07-28T03:45:52.707Z,1840
2017-07-28T03:46:52.696Z,1948
2017-07-28T03:47:52.699Z,1988
2017-07-28T03:48:52.396Z,2016
2017-07-28T03:49:52.690Z,2052
2017-07-28T03:50:52.712Z,2096
2017-07-28T03:51:52.054Z,2156
2017-07-28T03:52:52.678Z,2240
2017-07-28T03:53:52.678Z,2344
2017-07-28T03:54:52.690Z,2464
2017-07-28T03:55:52.669Z,2592
2017-07-28T03:56:52.687Z,2728
2017-07-28T03:57:52.649Z,2844
2017-07-28T03:58:52.631Z,3008
2017-07-28T03:59:52.659Z,3080
2017-07-28T04:00:52.674Z,3128
2017-07-28T04:01:52.663Z,3352
2017-07-28T04:02:52.645Z,3552
2017-07-28T04:03:52.626Z,3724
2017-07-28T04:04:52.632Z,3824
2017-07-28T04:05:52.630Z,3884
2017-07-28T04:06:52.628Z,3960
2017-07-28T04:07:52.286Z,3996
2017-07-28T04:08:52.626Z,3920
2017-07-28T04:09:52.637Z,4024
2017-07-28T04:10:52.315Z,4052
2017-07-28T04:11:52.614Z,4028
2017-07-28T04:12:52.581Z,4004
2017-07-28T04:13:52.600Z,3504
2017-07-28T04:14:52.605Z,3420
2017-07-28T04:15:52.011Z,3620
2017-07-28T04:16:52.595Z,3924
2017-07-28T04:17:52.596Z,4632
2017-07-28T04:18:52.578Z,4724
2017-07-28T04:19:52.572Z,5224
2017-07-28T04:20:52.275Z,6080
2017-07-28T04:21:52.279Z,6220
2017-07-28T04:22:52.570Z,6028
2017-07-28T04:23:52.577Z,6700
2017-07-28T04:24:52.552Z,7144
2017-07-28T04:25:52.578Z,7440
2017-07-28T04:26:52.570Z,7768
2017-07-28T04:27:52.574Z,8092
2017-07-28T04:28:52.545Z,8168
2017-07-28T04:29:52.564Z,9048
2017-07-28T04:30:52.553Z,8896
2017-07-28T04:31:52.567Z,9520
2017-07-28T04:32:52.554Z,10592
2017-07-28T04:33:52.249Z,9632
2017-07-28T04:34:52.533Z,10212
2017-07-28T04:35:52.547Z,10112
2017-07-28T04:36:52.552Z,10124
2017-07-28T04:37:52.546Z,10376
2017-07-28T04:38:52.247Z,10232
2017-07-28T04:39:52.540Z,10584
2017-07-28T04:40:52.551Z,10808
2017-07-28T04:41:52.554Z,10852
2017-07-28T04:42:52.549Z,11208
2017-07-28T04:43:52.535Z,11832
2017-07-28T04:44:52.551Z,12596
2017-07-28T04:45:51.923Z,13292
2017-07-28T04:46:52.242Z,13564
2017-07-28T04:47:52.221Z,14080
2017-07-28T04:48:51.925Z,14848
2017-07-28T04:49:52.537Z,16000
2017-07-28T04:50:52.521Z,16000
2017-07-28T04:51:52.553Z,16416
2017-07-28T04:52:52.541Z,14388
2017-07-28T04:53:52.586Z,17056
2017-07-28T04:54:52.568Z,17280
2017-07-28T04:55:52.560Z,17920
2017-07-28T04:56:52.554Z,18464
2017-07-28T04:57:52.553Z,18720
2017-07-28T04:58:52.577Z,19072
2017-07-28T04:59:52.569Z,19488
2017-07-28T05:00:52.577Z,19296
2017-07-28T05:01:52.577Z,19232
2017-07-28T05:02:52.602Z,19136
2017-07-28T05:03:52.593Z,18112
2017-07-28T05:04:52.264Z,17568
2017-07-28T05:05:52.609Z,17504
2017-07-28T05:06:52.600Z,13856
2017-07-28T05:07:52.612Z,12448
2017-07-28T05:08:52.617Z,12904
2017-07-28T05:09:52.307Z,14644
2017-07-28T05:10:52.610Z,20224
2017-07-28T05:11:52.637Z,15776
2017-07-28T05:12:52.649Z,15776
2017-07-28T05:13:52.623Z,20608
2017-07-28T05:14:52.649Z,22144
2017-07-28T05:15:52.617Z,22560
2017-07-28T05:16:52.658Z,22208
2017-07-28T05:17:52.649Z,22080
2017-07-28T05:18:52.661Z,22432
2017-07-28T05:19:52.651Z,22848
2017-07-28T05:20:52.675Z,24480
2017-07-28T05:21:52.677Z,24992
2017-07-28T05:22:52.695Z,24096
2017-07-28T05:23:52.687Z,26176
2017-07-28T05:24:52.703Z,26496
2017-07-28T05:25:52.702Z,27200
2017-07-28T05:26:52.709Z,27136
2017-07-28T05:27:52.708Z,28896
2017-07-28T05:28:52.739Z,27104
2017-07-28T05:29:52.729Z,19872
2017-07-28T05:30:52.398Z,23360
2017-07-28T05:31:52.763Z,24576
2017-07-28T05:32:52.734Z,13164
2017-07-28T05:33:52.769Z,21088
2017-07-28T05:34:52.782Z,26560
2017-07-28T05:35:52.792Z,27648
2017-07-28T05:36:52.497Z,27520
2017-07-28T05:37:52.487Z,28384
2017-07-28T05:38:53.027Z,29472
2017-07-28T05:39:52.503Z,29664
2017-07-28T05:40:52.801Z,28448
2017-07-28T05:41:52.812Z,28256
2017-07-28T05:42:52.819Z,30496
2017-07-28T05:43:52.527Z,31680
2017-07-28T05:44:52.831Z,31680
2017-07-28T05:45:53.251Z,30880
2017-07-28T05:46:52.554Z,31776
2017-07-28T05:47:53.755Z,32704
2017-07-28T05:48:52.558Z,32608
2017-07-28T05:49:52.879Z,33280
2017-07-28T05:50:52.584Z,32832
2017-07-28T05:51:52.929Z,32704
2017-07-28T05:52:52.611Z,34208
2017-07-28T05:53:52.610Z,35520
2017-07-28T05:54:52.618Z,36224
2017-07-28T05:55:52.618Z,35936
2017-07-28T05:56:52.946Z,36032
2017-07-28T05:57:52.952Z,36224
2017-07-28T05:58:52.976Z,37248
2017-07-28T05:59:52.972Z,36512
2017-07-28T06:00:52.691Z,36256
2017-07-28T06:01:52.693Z,38272
2017-07-28T06:02:53.021Z,39712
2017-07-28T06:03:53.024Z,39328
2017-07-28T06:04:53.027Z,38240
2017-07-28T06:05:52.743Z,38592
2017-07-28T06:06:52.745Z,40704
2017-07-28T06:07:53.082Z,41664
2017-07-28T06:08:53.097Z,41952
2017-07-28T06:09:52.777Z,42528
2017-07-28T06:10:53.102Z,42752
2017-07-28T06:11:53.097Z,41888
2017-07-28T06:12:53.139Z,40224
2017-07-28T06:13:53.120Z,40640
2017-07-28T06:14:53.145Z,41632
2017-07-28T06:15:53.126Z,41024
2017-07-28T06:16:53.170Z,38848
2017-07-28T06:17:52.883Z,37760
2017-07-28T06:18:53.197Z,38144
2017-07-28T06:19:52.570Z,38560
2017-07-28T06:20:53.216Z,38080
2017-07-28T06:21:53.239Z,36672
2017-07-28T06:22:53.243Z,35808
2017-07-28T06:23:53.241Z,36000
2017-07-28T06:24:53.269Z,36128
2017-07-28T06:25:53.283Z,35072
2017-07-28T06:26:53.306Z,33888
2017-07-28T06:27:53.313Z,32448
2017-07-28T06:28:53.309Z,30752
2017-07-28T06:29:53.325Z,30976
2017-07-28T06:30:53.342Z,31232
2017-07-28T06:31:53.024Z,31360
2017-07-28T06:32:53.374Z,32288
2017-07-28T06:33:53.364Z,32096
2017-07-28T06:34:53.082Z,32480
2017-07-28T06:35:52.793Z,37600
2017-07-28T06:36:53.451Z,44512
2017-07-28T06:37:53.433Z,51360
2017-07-28T06:38:53.149Z,59136
2017-07-28T06:39:53.464Z,59008
2017-07-28T06:40:53.473Z,56256
2017-07-28T06:41:53.500Z,57792
2017-07-28T06:42:53.507Z,56928
2017-07-28T06:43:52.603Z,57568
2017-07-28T06:44:53.221Z,57824
2017-07-28T06:45:53.567Z,56512
2017-07-28T06:46:53.546Z,59296
2017-07-28T06:47:53.297Z,66944
2017-07-28T06:48:53.587Z,75584
2017-07-28T06:49:53.629Z,78432
2017-07-28T06:50:53.641Z,70208
2017-07-28T06:51:53.347Z,61696
2017-07-28T06:52:53.046Z,62080
2017-07-28T06:53:55.980Z,75872
2017-07-28T06:54:53.707Z,90336
2017-07-28T06:55:53.696Z,96512
2017-07-28T06:56:53.704Z,91488
2017-07-28T06:57:53.442Z,83296
2017-07-28T06:58:53.746Z,73120
2017-07-28T06:59:53.781Z,63744
2017-07-28T07:00:53.774Z,61312
2017-07-28T07:01:53.801Z,61792
2017-07-28T07:02:53.495Z,64160
2017-07-28T07:03:53.531Z,66432
2017-07-28T07:04:53.527Z,69536
2017-07-28T07:05:53.562Z,72480
2017-07-28T07:06:53.901Z,76512
2017-07-28T07:07:53.610Z,78240
2017-07-28T07:08:53.911Z,79840
2017-07-28T07:09:53.954Z,77952
2017-07-28T07:10:53.948Z,75328
2017-07-28T07:11:53.977Z,73024
2017-07-28T07:12:54.000Z,72160
2017-07-28T07:13:53.993Z,70720
2017-07-28T07:14:53.399Z,69248
2017-07-28T07:15:54.019Z,67584
2017-07-28T07:16:54.069Z,66784
2017-07-28T07:17:54.054Z,65056
2017-07-28T07:18:54.092Z,66048
2017-07-28T07:19:53.789Z,68960
2017-07-28T07:20:54.158Z,66976
2017-07-28T07:21:54.395Z,63424
2017-07-28T07:22:54.156Z,61184
2017-07-28T07:23:54.174Z,59328
2017-07-28T07:24:54.175Z,57312
2017-07-28T07:25:54.186Z,60704
2017-07-28T07:26:53.909Z,66848
2017-07-28T07:27:53.961Z,69600
2017-07-28T07:28:54.278Z,67136
2017-07-28T07:29:54.268Z,65504
2017-07-28T07:30:54.296Z,64480
2017-07-28T07:31:54.316Z,61856
2017-07-28T07:32:54.026Z,57536
2017-07-28T07:33:53.711Z,54656
2017-07-28T07:34:54.064Z,51488
2017-07-28T07:35:54.072Z,46336
2017-07-28T07:36:54.397Z,42624
2017-07-28T07:37:54.428Z,40832
2017-07-28T07:38:54.155Z,40736
2017-07-28T07:39:54.144Z,41184
2017-07-28T07:40:54.453Z,41408
2017-07-28T07:41:54.476Z,40384
2017-07-28T07:42:54.188Z,38976
2017-07-28T07:43:54.211Z,39200
2017-07-28T07:44:54.553Z,42656
2017-07-28T07:45:54.550Z,48800
2017-07-28T07:46:54.269Z,54976
2017-07-28T07:47:54.851Z,56992
2017-07-28T07:48:54.305Z,59904
2017-07-28T07:50:54.629Z,64512
2017-07-28T07:51:54.648Z,61344
2017-07-28T07:52:54.689Z,55712
2017-07-28T07:53:54.387Z,50464
2017-07-28T07:54:54.723Z,50880
2017-07-28T07:55:54.414Z,51904
2017-07-28T07:56:54.769Z,55104
2017-07-28T07:57:54.749Z,58784
2017-07-28T07:58:54.790Z,61600
2017-07-28T07:59:55.804Z,64224
2017-07-28T08:00:54.832Z,65440
2017-07-28T08:01:54.836Z,64992
2017-07-28T08:02:54.874Z,65152
2017-07-28T08:03:54.873Z,63680
2017-07-28T08:04:54.882Z,65376
2017-07-28T08:05:54.907Z,68192
2017-07-28T08:06:54.629Z,74240
2017-07-28T08:07:54.959Z,84704
2017-07-28T08:08:54.640Z,98464
2017-07-28T08:09:54.981Z,106368
2017-07-28T08:10:54.993Z,110304
2017-07-28T08:11:55.033Z,113344
2017-07-28T08:12:55.033Z,119520
2017-07-28T08:13:54.742Z,122592
2017-07-28T08:14:54.455Z,119520
2017-07-28T08:15:55.067Z,118272
2017-07-28T08:17:54.818Z,119392
2017-07-28T08:18:54.533Z,117280
2017-07-28T08:19:54.858Z,110688
2017-07-28T08:20:54.569Z,91136
2017-07-28T08:21:54.594Z,78080
2017-07-28T08:22:54.929Z,75136
2017-07-28T08:23:55.260Z,68192
2017-07-28T08:24:54.956Z,65824
2017-07-28T08:25:55.293Z,72384
2017-07-28T08:26:55.296Z,84000
2017-07-28T08:27:55.335Z,93120
2017-07-28T08:28:55.318Z,94432
2017-07-28T08:29:55.062Z,83520
2017-07-28T08:30:55.405Z,67040
2017-07-28T08:31:55.100Z,52544
2017-07-28T08:32:55.398Z,46656
2017-07-28T08:33:55.130Z,48576
2017-07-28T08:34:55.149Z,66208
2017-07-28T08:35:55.487Z,88512
2017-07-28T08:36:55.188Z,100224
2017-07-28T08:37:55.182Z,92064
2017-07-28T08:38:55.512Z,77184
2017-07-28T08:39:55.229Z,68480
2017-07-28T08:40:55.531Z,69600
2017-07-28T08:41:55.579Z,72256
2017-07-28T08:42:55.574Z,72736
2017-07-28T08:43:55.297Z,70464
2017-07-28T08:44:55.619Z,72352
2017-07-28T08:45:55.650Z,74496
2017-07-28T08:46:55.657Z,75616
2017-07-28T08:47:55.364Z,77824
2017-07-28T08:48:55.678Z,80160
2017-07-28T08:49:55.700Z,79584
2017-07-28T08:50:55.400Z,80224
2017-07-28T08:51:55.735Z,81856
2017-07-28T08:52:55.758Z,79072
2017-07-28T08:53:55.758Z,51168
2017-07-28T08:54:55.780Z,17248
2017-07-28T08:55:55.776Z,9136
2017-07-28T08:56:55.831Z,9508
2017-07-28T08:57:55.817Z,9252
2017-07-28T08:58:55.839Z,8628
2017-07-28T08:59:55.857Z,8340
2017-07-28T09:00:55.863Z,8308
2017-07-28T09:01:55.560Z,8364
2017-07-28T09:02:57.877Z,9156
2017-07-28T09:03:55.910Z,9108
2017-07-28T09:04:55.901Z,9760
2017-07-28T09:05:55.908Z,10388
2017-07-28T09:06:55.615Z,10624
2017-07-28T09:07:55.913Z,10624
2017-07-28T09:08:55.956Z,9944
2017-07-28T09:09:55.977Z,9444
2017-07-28T09:10:55.976Z,9276
2017-07-28T09:11:55.955Z,9448
2017-07-28T09:12:55.990Z,9776
2017-07-28T09:13:55.981Z,10148
2017-07-28T09:14:56.012Z,9864
2017-07-28T09:15:56.001Z,9764
2017-07-28T09:16:56.009Z,10144
2017-07-28T09:17:56.005Z,10828
2017-07-28T09:18:56.016Z,10924
2017-07-28T09:19:56.037Z,11236
2017-07-28T09:20:55.722Z,10696
2017-07-28T09:21:56.068Z,9988
2017-07-28T09:22:55.761Z,9692
2017-07-28T09:23:56.062Z,9884
2017-07-28T09:24:55.753Z,11660
2017-07-28T09:25:56.075Z,14612
2017-07-28T09:26:56.058Z,16568
2017-07-28T09:27:56.093Z,16736
2017-07-28T09:28:55.765Z,16172
2017-07-28T09:29:55.783Z,14496
2017-07-28T09:30:55.781Z,12208
2017-07-28T09:31:56.089Z,10268
2017-07-28T09:32:55.793Z,9548
2017-07-28T09:33:55.771Z,9740
2017-07-28T09:34:56.112Z,10828
2017-07-28T09:35:55.818Z,12328
2017-07-28T09:36:56.115Z,12872
2017-07-28T09:37:56.133Z,12068
2017-07-28T09:38:56.134Z,11360
2017-07-28T09:39:56.133Z,9784
2017-07-28T09:40:56.118Z,8684
2017-07-28T09:41:56.450Z,8172
2017-07-28T09:42:55.836Z,7876
2017-07-28T09:43:56.156Z,7924
2017-07-28T09:44:56.174Z,8116
2017-07-28T09:45:56.163Z,8128
2017-07-28T09:46:56.149Z,8004
2017-07-28T09:47:56.173Z,8060
2017-07-28T09:48:55.869Z,8364
2017-07-28T09:49:56.178Z,8804
2017-07-28T09:50:56.181Z,9184
2017-07-28T09:51:56.162Z,9700
2017-07-28T09:52:56.164Z,9940
2017-07-28T09:53:56.177Z,10196
2017-07-28T09:54:56.198Z,11668
2017-07-28T09:55:56.178Z,12660
2017-07-28T09:56:56.178Z,12612
2017-07-28T09:57:56.220Z,11968
2017-07-28T09:58:56.210Z,12016
2017-07-28T09:59:56.217Z,12400
2017-07-28T10:00:55.893Z,14212
2017-07-28T10:01:55.919Z,14624
2017-07-28T10:02:56.202Z,13108
2017-07-28T10:03:56.232Z,11848
2017-07-28T10:04:55.909Z,13660
2017-07-28T10:05:56.238Z,17984
2017-07-28T10:06:55.925Z,20352
2017-07-28T10:07:55.914Z,19584
2017-07-28T10:08:56.255Z,17856
2017-07-28T10:09:55.934Z,19680
2017-07-28T10:10:56.262Z,19616
2017-07-28T10:11:56.244Z,19712
2017-07-28T10:12:55.960Z,18688
2017-07-28T10:13:56.254Z,15368
2017-07-28T10:14:56.264Z,12592
2017-07-28T10:15:56.295Z,10988
2017-07-28T10:16:55.971Z,10320
2017-07-28T10:17:56.279Z,10452
2017-07-28T10:18:56.299Z,11396
2017-07-28T10:19:55.983Z,11816
2017-07-28T10:20:56.294Z,13412
2017-07-28T10:21:56.303Z,14604
2017-07-28T10:22:55.993Z,14360
2017-07-28T10:23:56.303Z,13652
2017-07-28T10:24:56.306Z,13440
2017-07-28T10:25:56.309Z,13536
2017-07-28T10:26:56.025Z,13324
2017-07-28T10:27:56.014Z,12688
2017-07-28T10:28:56.028Z,11796
2017-07-28T10:29:56.320Z,10928
2017-07-28T10:30:56.045Z,10304
2017-07-28T10:31:55.714Z,9900
2017-07-28T10:32:56.341Z,9720
2017-07-28T10:33:56.324Z,9616
2017-07-28T10:34:56.357Z,9504
2017-07-28T10:35:56.371Z,10160
2017-07-28T10:36:56.370Z,12200
2017-07-28T10:37:56.354Z,13772
2017-07-28T10:38:56.372Z,14208
2017-07-28T10:39:56.078Z,14436
2017-07-28T10:40:56.374Z,13360
2017-07-28T10:41:56.410Z,13068
2017-07-28T10:42:56.397Z,13244
2017-07-28T10:43:55.780Z,12468
2017-07-28T10:44:56.735Z,12916
2017-07-28T10:45:56.431Z,14236
2017-07-28T10:46:56.400Z,15460
2017-07-28T10:47:56.424Z,17120
2017-07-28T10:48:56.418Z,19552
2017-07-28T10:49:56.415Z,21824
2017-07-28T10:50:56.126Z,23744
2017-07-28T10:51:56.128Z,25024
2017-07-28T10:52:56.434Z,24480
2017-07-28T10:53:56.437Z,23872
2017-07-28T10:54:56.439Z,24896
2017-07-28T10:55:56.447Z,24320
2017-07-28T10:56:56.455Z,21888
2017-07-28T10:57:56.165Z,21376
2017-07-28T10:58:56.442Z,21152
2017-07-28T10:59:56.758Z,19520
2017-07-28T11:00:56.172Z,17952
2017-07-28T11:01:56.469Z,16896
2017-07-28T11:02:56.484Z,17088
2017-07-28T11:03:56.174Z,17696
2017-07-28T11:04:56.488Z,18528
2017-07-28T11:05:56.478Z,19136
2017-07-28T11:06:56.509Z,19840
2017-07-28T11:07:56.504Z,20480
2017-07-28T11:08:56.527Z,21120
2017-07-28T11:09:56.505Z,22176
2017-07-28T11:10:56.546Z,22976
2017-07-28T11:11:56.533Z,22976
2017-07-28T11:12:56.531Z,22688
2017-07-28T11:13:56.529Z,22400
2017-07-28T11:14:56.251Z,22816
2017-07-28T11:15:56.651Z,23168
2017-07-28T11:16:56.256Z,23488
2017-07-28T11:17:56.543Z,24224
2017-07-28T11:18:56.280Z,24576
2017-07-28T11:19:56.566Z,24096
2017-07-28T11:20:56.587Z,23104
2017-07-28T11:21:56.559Z,21824
2017-07-28T11:22:56.597Z,21056
2017-07-28T11:23:56.596Z,21536
2017-07-28T11:24:56.320Z,21536
2017-07-28T11:25:56.301Z,21248
2017-07-28T11:26:56.288Z,20544
2017-07-28T11:27:56.619Z,19488
2017-07-28T11:28:56.635Z,18432
2017-07-28T11:29:56.654Z,18624
2017-07-28T11:30:56.633Z,19712
2017-07-28T11:31:56.639Z,21120
2017-07-28T11:32:56.651Z,22048
2017-07-28T11:33:56.671Z,22784
2017-07-28T11:34:56.657Z,23360
2017-07-28T11:35:56.690Z,23808
2017-07-28T11:36:56.662Z,23968
2017-07-28T11:37:56.698Z,24000
2017-07-28T11:38:56.686Z,24352
2017-07-28T11:39:56.393Z,25056
2017-07-28T11:40:56.718Z,25888
2017-07-28T11:41:56.692Z,26272
2017-07-28T11:42:56.712Z,25888
2017-07-28T11:43:56.415Z,25600
2017-07-28T11:44:56.725Z,25952
2017-07-28T11:45:56.745Z,26176
2017-07-28T11:46:56.424Z,26112
2017-07-28T11:47:56.424Z,25952
2017-07-28T11:48:56.416Z,25568
2017-07-28T11:49:56.453Z,25248
2017-07-28T11:50:56.444Z,24640
2017-07-28T11:51:56.453Z,24032
2017-07-28T11:52:56.477Z,23680
2017-07-28T11:53:56.470Z,23424
2017-07-28T11:54:56.454Z,23232
2017-07-28T11:55:56.475Z,22848
2017-07-28T11:56:56.475Z,22624
2017-07-28T11:57:56.513Z,22176
2017-07-28T11:58:56.501Z,21856
2017-07-28T11:59:56.810Z,21664
2017-07-28T12:00:56.508Z,21984
2017-07-28T12:01:56.524Z,22464
2017-07-28T12:02:56.538Z,22784
2017-07-28T12:03:56.846Z,23200
2017-07-28T12:04:56.537Z,23616
2017-07-28T12:05:56.855Z,24576
2017-07-28T12:06:56.551Z,25536
2017-07-28T12:07:56.579Z,26176
2017-07-28T12:08:56.572Z,26976
2017-07-28T12:09:56.577Z,27872
2017-07-28T12:10:56.880Z,28448
2017-07-28T12:11:56.900Z,28512
2017-07-28T12:12:56.903Z,28384
2017-07-28T12:13:56.929Z,26720
2017-07-28T12:14:56.611Z,24160
2017-07-28T12:15:56.910Z,21152
2017-07-28T12:16:56.913Z,18912
2017-07-28T12:17:56.939Z,17536
2017-07-28T12:18:56.954Z,16068
2017-07-28T12:19:56.637Z,14872
2017-07-28T12:20:56.971Z,14000
2017-07-28T12:21:56.669Z,13504
2017-07-28T12:22:56.969Z,13148
2017-07-28T12:23:56.970Z,12632
2017-07-28T12:24:56.968Z,12544
2017-07-28T12:25:56.675Z,13220
2017-07-28T12:26:57.022Z,16208
2017-07-28T12:27:56.375Z,17920
2017-07-28T12:28:56.705Z,18176
2017-07-28T12:29:57.003Z,17920
2017-07-28T12:30:59.411Z,17920
2017-07-28T12:31:56.407Z,18016
2017-07-28T12:32:56.737Z,17248
2017-07-28T12:33:56.718Z,16624
2017-07-28T12:34:56.740Z,15076
2017-07-28T12:35:56.739Z,13264
2017-07-28T12:36:56.759Z,12696
2017-07-28T12:37:56.445Z,12964
2017-07-28T12:38:56.774Z,14100
2017-07-28T12:39:57.068Z,15300
2017-07-28T12:40:56.767Z,18016
2017-07-28T12:41:56.780Z,19552
2017-07-28T12:42:57.109Z,20576
2017-07-28T12:43:57.105Z,20992
2017-07-28T12:44:56.786Z,19904
2017-07-28T12:45:57.114Z,19072
2017-07-28T12:46:57.119Z,19520
2017-07-28T12:47:56.826Z,20064
2017-07-28T12:48:57.129Z,20288
2017-07-28T12:49:57.155Z,20448
2017-07-28T12:50:56.842Z,20288
2017-07-28T12:51:56.845Z,20224
2017-07-28T12:52:57.158Z,21120
2017-07-28T12:53:57.159Z,23328
2017-07-28T12:54:57.146Z,24352
2017-07-28T12:55:57.168Z,24224
2017-07-28T12:56:57.185Z,23712
2017-07-28T12:57:56.881Z,23136
2017-07-28T12:58:56.880Z,21760
2017-07-28T12:59:56.894Z,21344
2017-07-28T13:00:56.881Z,21568
2017-07-28T13:01:56.899Z,22144
2017-07-28T13:02:57.219Z,21856
2017-07-28T13:03:57.220Z,20544
2017-07-28T13:04:57.219Z,19616
2017-07-28T13:05:57.249Z,19008
2017-07-28T13:06:57.222Z,18624
2017-07-28T13:07:57.242Z,18560
2017-07-28T13:08:57.233Z,18496
2017-07-28T13:09:56.946Z,18208
2017-07-28T13:10:57.252Z,18176
2017-07-28T13:11:57.266Z,18496
2017-07-28T13:12:56.972Z,18656
2017-07-28T13:13:57.290Z,19712
2017-07-28T13:14:57.297Z,20544
2017-07-28T13:15:56.971Z,21312
2017-07-28T13:16:57.301Z,22368
2017-07-28T13:17:57.308Z,22624
2017-07-28T13:18:57.012Z,21888
2017-07-28T13:19:57.325Z,20768
2017-07-28T13:20:57.319Z,19424
2017-07-28T13:21:57.329Z,18880
2017-07-28T13:22:57.332Z,18656
2017-07-28T13:23:57.351Z,18720